sensor_id;sensor_type;location;lat;lon;timestamp;P1;durP1;ratioP1;P2;durP2;ratioP2
19780;SDS011;10050;55.492;13.506;2022-09-27T00:00:59;3.03;;;1.50;;
19780;SDS011;10050;55.492;13.506;2022-09-27T00:03:26;4.63;;;1.83;;
19780;SDS011;10050;55.492;13.506;2022-09-27T00:06:27;1.80;;;1.60;;
19780;SDS011;10050;55.492;13.506;2022-09-27T00:08:49;1.60;;;1.50;;
19780;SDS011;10050;55.492;13.506;2022-09-27T00:11:32;1.37;;;1.27;;
19780;SDS011;10050;55.492;13.506;2022-09-27T00:13:59;3.20;;;1.57;;
19780;SDS011;10050;55.492;13.506;2022-09-27T00:16:26;4.83;;;1.53;;
19780;SDS011;10050;55.492;13.506;2022-09-27T00:19:02;3.27;;;1.53;;
19780;SDS011;10050;55.492;13.506;2022-09-27T00:21:29;2.67;;;1.60;;
19780;SDS011;10050;55.492;13.506;2022-09-27T00:23:56;1.47;;;1.37;;
19780;SDS011;10050;55.492;13.506;2022-09-27T00:26:23;1.77;;;1.50;;
19780;SDS011;10050;55.492;13.506;2022-09-27T00:28:49;2.60;;;1.53;;
19780;SDS011;10050;55.492;13.506;2022-09-27T00:31:18;1.60;;;1.30;;
19780;SDS011;10050;55.492;13.506;2022-09-27T00:33:49;2.13;;;1.53;;
19780;SDS011;10050;55.492;13.506;2022-09-27T00:36:17;1.43;;;1.33;;
19780;SDS011;10050;55.492;13.506;2022-09-27T00:38:44;3.03;;;1.37;;
19780;SDS011;10050;55.492;13.506;2022-09-27T00:41:32;2.23;;;1.50;;
19780;SDS011;10050;55.492;13.506;2022-09-27T00:43:59;2.57;;;1.53;;
19780;SDS011;10050;55.492;13.506;2022-09-27T00:49:15;3.13;;;1.60;;
19780;SDS011;10050;55.492;13.506;2022-09-27T00:51:53;4.17;;;1.60;;
19780;SDS011;10050;55.492;13.506;2022-09-27T00:54:24;1.40;;;1.30;;
19780;SDS011;10050;55.492;13.506;2022-09-27T00:56:52;2.70;;;1.30;;
19780;SDS011;10050;55.492;13.506;2022-09-27T00:59:19;5.90;;;1.40;;
19780;SDS011;10050;55.492;13.506;2022-09-27T01:01:50;1.43;;;1.17;;
19780;SDS011;10050;55.492;13.506;2022-09-27T01:04:16;4.33;;;1.67;;
19780;SDS011;10050;55.492;13.506;2022-09-27T01:06:47;2.53;;;1.27;;
19780;SDS011;10050;55.492;13.506;2022-09-27T01:09:14;1.10;;;1.10;;
19780;SDS011;10050;55.492;13.506;2022-09-27T01:17:33;1.83;;;1.37;;
19780;SDS011;10050;55.492;13.506;2022-09-27T01:43:00;3.83;;;1.77;;
19780;SDS011;10050;55.492;13.506;2022-09-27T01:45:46;1.83;;;1.40;;
19780;SDS011;10050;55.492;13.506;2022-09-27T01:56:09;2.37;;;1.80;;
19780;SDS011;10050;55.492;13.506;2022-09-27T01:58:50;2.87;;;1.80;;
19780;SDS011;10050;55.492;13.506;2022-09-27T02:01:23;1.63;;;1.30;;
19780;SDS011;10050;55.492;13.506;2022-09-27T02:03:52;1.50;;;1.40;;
19780;SDS011;10050;55.492;13.506;2022-09-27T02:06:20;2.97;;;1.40;;
19780;SDS011;10050;55.492;13.506;2022-09-27T02:08:56;4.53;;;1.50;;
19780;SDS011;10050;55.492;13.506;2022-09-27T02:11:44;1.30;;;1.20;;
19780;SDS011;10050;55.492;13.506;2022-09-27T02:14:19;4.47;;;1.30;;
19780;SDS011;10050;55.492;13.506;2022-09-27T02:16:52;5.40;;;1.63;;
19780;SDS011;10050;55.492;13.506;2022-09-27T02:22:19;2.63;;;1.37;;
19780;SDS011;10050;55.492;13.506;2022-09-27T02:24:49;2.93;;;1.27;;
19780;SDS011;10050;55.492;13.506;2022-09-27T02:27:23;1.20;;;1.20;;
19780;SDS011;10050;55.492;13.506;2022-09-27T02:30:05;3.90;;;1.13;;
19780;SDS011;10050;55.492;13.506;2022-09-27T02:32:34;3.40;;;1.17;;
19780;SDS011;10050;55.492;13.506;2022-09-27T02:35:01;2.73;;;1.30;;
19780;SDS011;10050;55.492;13.506;2022-09-27T02:37:32;1.67;;;1.40;;
19780;SDS011;10050;55.492;13.506;2022-09-27T02:39:58;1.30;;;1.20;;
19780;SDS011;10050;55.492;13.506;2022-09-27T02:42:24;2.50;;;1.37;;
19780;SDS011;10050;55.492;13.506;2022-09-27T02:44:51;3.80;;;1.57;;
19780;SDS011;10050;55.492;13.506;2022-09-27T03:01:32;1.57;;;1.47;;
19780;SDS011;10050;55.492;13.506;2022-09-27T03:04:13;2.70;;;1.70;;
19780;SDS011;10050;55.492;13.506;2022-09-27T03:06:47;3.00;;;1.43;;
19780;SDS011;10050;55.492;13.506;2022-09-27T03:09:19;3.43;;;1.77;;
19780;SDS011;10050;55.492;13.506;2022-09-27T03:11:46;1.80;;;1.70;;
19780;SDS011;10050;55.492;13.506;2022-09-27T03:14:12;4.47;;;1.60;;
19780;SDS011;10050;55.492;13.506;2022-09-27T03:16:37;4.63;;;1.80;;
19780;SDS011;10050;55.492;13.506;2022-09-27T03:19:03;2.53;;;1.60;;
19780;SDS011;10050;55.492;13.506;2022-09-27T03:21:29;1.50;;;1.40;;
19780;SDS011;10050;55.492;13.506;2022-09-27T03:23:55;3.27;;;1.10;;
19780;SDS011;10050;55.492;13.506;2022-09-27T03:26:20;3.10;;;1.50;;
19780;SDS011;10050;55.492;13.506;2022-09-27T03:28:46;4.27;;;1.60;;
19780;SDS011;10050;55.492;13.506;2022-09-27T03:31:12;2.83;;;1.60;;
19780;SDS011;10050;55.492;13.506;2022-09-27T03:33:38;1.67;;;1.50;;
19780;SDS011;10050;55.492;13.506;2022-09-27T03:36:05;2.17;;;1.80;;
19780;SDS011;10050;55.492;13.506;2022-09-27T03:38:31;2.60;;;1.30;;
19780;SDS011;10050;55.492;13.506;2022-09-27T03:40:56;3.17;;;1.50;;
19780;SDS011;10050;55.492;13.506;2022-09-27T03:43:23;1.80;;;1.27;;
19780;SDS011;10050;55.492;13.506;2022-09-27T03:45:48;1.53;;;1.43;;
19780;SDS011;10050;55.492;13.506;2022-09-27T03:48:14;1.40;;;1.30;;
19780;SDS011;10050;55.492;13.506;2022-09-27T03:50:40;1.97;;;1.40;;
19780;SDS011;10050;55.492;13.506;2022-09-27T03:53:05;2.40;;;1.67;;
19780;SDS011;10050;55.492;13.506;2022-09-27T03:55:31;2.43;;;1.73;;
19780;SDS011;10050;55.492;13.506;2022-09-27T03:57:57;1.90;;;1.80;;
19780;SDS011;10050;55.492;13.506;2022-09-27T04:00:22;1.97;;;1.67;;
19780;SDS011;10050;55.492;13.506;2022-09-27T04:02:48;4.90;;;1.70;;
19780;SDS011;10050;55.492;13.506;2022-09-27T04:05:14;3.70;;;1.73;;
19780;SDS011;10050;55.492;13.506;2022-09-27T04:07:44;2.27;;;1.63;;
19780;SDS011;10050;55.492;13.506;2022-09-27T04:10:12;1.90;;;1.80;;
19780;SDS011;10050;55.492;13.506;2022-09-27T04:12:38;1.83;;;1.60;;
19780;SDS011;10050;55.492;13.506;2022-09-27T04:15:04;1.60;;;1.50;;
19780;SDS011;10050;55.492;13.506;2022-09-27T04:17:32;3.27;;;1.73;;
19780;SDS011;10050;55.492;13.506;2022-09-27T04:19:59;7.70;;;2.00;;
19780;SDS011;10050;55.492;13.506;2022-09-27T04:22:27;2.87;;;1.93;;
19780;SDS011;10050;55.492;13.506;2022-09-27T04:24:53;2.27;;;1.70;;
19780;SDS011;10050;55.492;13.506;2022-09-27T04:27:18;2.13;;;1.73;;
19780;SDS011;10050;55.492;13.506;2022-09-27T04:29:45;1.97;;;1.40;;
19780;SDS011;10050;55.492;13.506;2022-09-27T04:32:11;1.67;;;1.57;;
19780;SDS011;10050;55.492;13.506;2022-09-27T04:34:37;5.20;;;1.57;;
19780;SDS011;10050;55.492;13.506;2022-09-27T04:37:21;3.10;;;1.87;;
19780;SDS011;10050;55.492;13.506;2022-09-27T04:39:47;2.27;;;1.40;;
19780;SDS011;10050;55.492;13.506;2022-09-27T04:42:13;1.80;;;1.70;;
19780;SDS011;10050;55.492;13.506;2022-09-27T04:44:39;2.27;;;1.53;;
19780;SDS011;10050;55.492;13.506;2022-09-27T04:47:05;2.13;;;1.40;;
19780;SDS011;10050;55.492;13.506;2022-09-27T04:49:30;3.00;;;1.50;;
19780;SDS011;10050;55.492;13.506;2022-09-27T04:51:56;3.13;;;1.70;;
19780;SDS011;10050;55.492;13.506;2022-09-27T04:54:22;4.40;;;2.30;;
19780;SDS011;10050;55.492;13.506;2022-09-27T04:56:48;7.63;;;2.70;;
19780;SDS011;10050;55.492;13.506;2022-09-27T04:59:13;6.20;;;2.93;;
19780;SDS011;10050;55.492;13.506;2022-09-27T05:01:39;5.07;;;3.30;;
19780;SDS011;10050;55.492;13.506;2022-09-27T05:04:05;3.77;;;3.00;;
19780;SDS011;10050;55.492;13.506;2022-09-27T05:06:31;3.70;;;3.40;;
19780;SDS011;10050;55.492;13.506;2022-09-27T05:08:56;10.33;;;4.03;;
19780;SDS011;10050;55.492;13.506;2022-09-27T05:11:22;6.63;;;3.53;;
19780;SDS011;10050;55.492;13.506;2022-09-27T05:13:48;5.07;;;3.20;;
19780;SDS011;10050;55.492;13.506;2022-09-27T05:16:14;5.97;;;2.97;;
19780;SDS011;10050;55.492;13.506;2022-09-27T05:18:41;5.23;;;3.83;;
19780;SDS011;10050;55.492;13.506;2022-09-27T05:21:07;3.67;;;3.27;;
19780;SDS011;10050;55.492;13.506;2022-09-27T05:23:32;7.93;;;3.70;;
19780;SDS011;10050;55.492;13.506;2022-09-27T05:26:02;3.90;;;3.50;;
19780;SDS011;10050;55.492;13.506;2022-09-27T05:28:29;6.13;;;3.37;;
19780;SDS011;10050;55.492;13.506;2022-09-27T05:30:55;5.87;;;3.70;;
19780;SDS011;10050;55.492;13.506;2022-09-27T05:33:21;5.13;;;3.60;;
19780;SDS011;10050;55.492;13.506;2022-09-27T05:35:50;4.80;;;3.50;;
19780;SDS011;10050;55.492;13.506;2022-09-27T05:38:17;4.63;;;3.70;;
19780;SDS011;10050;55.492;13.506;2022-09-27T05:40:43;7.40;;;3.90;;
19780;SDS011;10050;55.492;13.506;2022-09-27T05:43:11;5.03;;;3.53;;
19780;SDS011;10050;55.492;13.506;2022-09-27T05:45:37;7.53;;;4.10;;
19780;SDS011;10050;55.492;13.506;2022-09-27T05:48:03;7.20;;;4.73;;
19780;SDS011;10050;55.492;13.506;2022-09-27T05:50:29;7.13;;;4.40;;
19780;SDS011;10050;55.492;13.506;2022-09-27T05:52:54;6.30;;;4.30;;
19780;SDS011;10050;55.492;13.506;2022-09-27T05:55:20;7.57;;;4.30;;
19780;SDS011;10050;55.492;13.506;2022-09-27T05:58:07;5.30;;;3.87;;
19780;SDS011;10050;55.492;13.506;2022-09-27T06:00:34;8.13;;;4.50;;
19780;SDS011;10050;55.492;13.506;2022-09-27T06:03:02;7.07;;;4.20;;
19780;SDS011;10050;55.492;13.506;2022-09-27T06:05:33;6.47;;;4.20;;
19780;SDS011;10050;55.492;13.506;2022-09-27T06:08:10;9.03;;;4.30;;
19780;SDS011;10050;55.492;13.506;2022-09-27T06:10:37;4.33;;;3.93;;
19780;SDS011;10050;55.492;13.506;2022-09-27T06:13:04;8.68;;;4.88;;
19780;SDS011;10050;55.492;13.506;2022-09-27T06:15:32;7.20;;;4.90;;
19780;SDS011;10050;55.492;13.506;2022-09-27T06:18:06;5.57;;;4.93;;
19780;SDS011;10050;55.492;13.506;2022-09-27T06:20:34;5.37;;;4.83;;
19780;SDS011;10050;55.492;13.506;2022-09-27T06:23:04;8.47;;;4.97;;
19780;SDS011;10050;55.492;13.506;2022-09-27T06:25:29;6.13;;;5.23;;
19780;SDS011;10050;55.492;13.506;2022-09-27T06:27:55;5.80;;;5.20;;
19780;SDS011;10050;55.492;13.506;2022-09-27T06:30:20;6.87;;;5.37;;
19780;SDS011;10050;55.492;13.506;2022-09-27T06:32:46;6.50;;;4.50;;
19780;SDS011;10050;55.492;13.506;2022-09-27T06:35:12;5.83;;;4.03;;
19780;SDS011;10050;55.492;13.506;2022-09-27T06:37:37;4.50;;;4.03;;
19780;SDS011;10050;55.492;13.506;2022-09-27T06:40:03;4.30;;;3.70;;
19780;SDS011;10050;55.492;13.506;2022-09-27T06:42:29;4.17;;;3.73;;
19780;SDS011;10050;55.492;13.506;2022-09-27T06:44:55;4.33;;;3.27;;
19780;SDS011;10050;55.492;13.506;2022-09-27T06:47:20;4.93;;;3.20;;
19780;SDS011;10050;55.492;13.506;2022-09-27T06:49:47;7.47;;;3.37;;
19780;SDS011;10050;55.492;13.506;2022-09-27T06:52:13;5.70;;;3.20;;
19780;SDS011;10050;55.492;13.506;2022-09-27T06:54:38;6.60;;;3.90;;
19780;SDS011;10050;55.492;13.506;2022-09-27T06:57:04;5.83;;;3.40;;
19780;SDS011;10050;55.492;13.506;2022-09-27T06:59:30;4.70;;;4.30;;
19780;SDS011;10050;55.492;13.506;2022-09-27T07:02:14;5.70;;;4.23;;
19780;SDS011;10050;55.492;13.506;2022-09-27T07:04:40;9.27;;;4.10;;
19780;SDS011;10050;55.492;13.506;2022-09-27T07:07:07;4.97;;;3.80;;
19780;SDS011;10050;55.492;13.506;2022-09-27T07:09:34;5.40;;;3.80;;
19780;SDS011;10050;55.492;13.506;2022-09-27T07:12:02;5.43;;;4.57;;
19780;SDS011;10050;55.492;13.506;2022-09-27T07:14:28;5.50;;;4.73;;
19780;SDS011;10050;55.492;13.506;2022-09-27T07:16:54;7.77;;;6.13;;
19780;SDS011;10050;55.492;13.506;2022-09-27T07:19:19;7.20;;;6.50;;
19780;SDS011;10050;55.492;13.506;2022-09-27T07:21:45;8.87;;;6.17;;
19780;SDS011;10050;55.492;13.506;2022-09-27T07:24:11;8.43;;;6.80;;
19780;SDS011;10050;55.492;13.506;2022-09-27T07:26:36;15.90;;;7.23;;
19780;SDS011;10050;55.492;13.506;2022-09-27T07:29:02;11.37;;;6.60;;
19780;SDS011;10050;55.492;13.506;2022-09-27T07:31:27;9.10;;;5.90;;
19780;SDS011;10050;55.492;13.506;2022-09-27T07:33:54;10.20;;;5.80;;
19780;SDS011;10050;55.492;13.506;2022-09-27T07:36:20;5.93;;;5.27;;
19780;SDS011;10050;55.492;13.506;2022-09-27T07:38:45;5.93;;;5.27;;
19780;SDS011;10050;55.492;13.506;2022-09-27T07:41:11;6.27;;;4.53;;
19780;SDS011;10050;55.492;13.506;2022-09-27T07:43:39;8.23;;;4.97;;
19780;SDS011;10050;55.492;13.506;2022-09-27T07:46:05;9.20;;;4.80;;
19780;SDS011;10050;55.492;13.506;2022-09-27T07:48:32;8.00;;;4.87;;
19780;SDS011;10050;55.492;13.506;2022-09-27T07:50:57;8.80;;;4.23;;
19780;SDS011;10050;55.492;13.506;2022-09-27T07:53:23;5.07;;;3.80;;
19780;SDS011;10050;55.492;13.506;2022-09-27T07:55:50;5.70;;;4.30;;
19780;SDS011;10050;55.492;13.506;2022-09-27T07:58:17;7.33;;;4.23;;
19780;SDS011;10050;55.492;13.506;2022-09-27T08:00:43;5.80;;;4.00;;
19780;SDS011;10050;55.492;13.506;2022-09-27T08:03:10;8.97;;;5.00;;
19780;SDS011;10050;55.492;13.506;2022-09-27T08:05:44;5.93;;;5.33;;
19780;SDS011;10050;55.492;13.506;2022-09-27T08:08:12;8.93;;;5.77;;
19780;SDS011;10050;55.492;13.506;2022-09-27T08:10:38;7.30;;;5.90;;
19780;SDS011;10050;55.492;13.506;2022-09-27T08:13:08;6.43;;;5.77;;
19780;SDS011;10050;55.492;13.506;2022-09-27T08:15:34;6.50;;;5.90;;
19780;SDS011;10050;55.492;13.506;2022-09-27T08:18:02;5.33;;;4.80;;
19780;SDS011;10050;55.492;13.506;2022-09-27T08:20:28;6.90;;;5.30;;
19780;SDS011;10050;55.492;13.506;2022-09-27T08:22:54;6.33;;;5.67;;
19780;SDS011;10050;55.492;13.506;2022-09-27T08:25:20;6.23;;;5.63;;
19780;SDS011;10050;55.492;13.506;2022-09-27T08:27:57;7.33;;;5.60;;
19780;SDS011;10050;55.492;13.506;2022-09-27T08:30:24;7.00;;;6.07;;
19780;SDS011;10050;55.492;13.506;2022-09-27T08:32:55;6.07;;;5.50;;
19780;SDS011;10050;55.492;13.506;2022-09-27T08:35:21;7.33;;;5.50;;
19780;SDS011;10050;55.492;13.506;2022-09-27T08:37:56;9.37;;;6.60;;
19780;SDS011;10050;55.492;13.506;2022-09-27T08:40:24;11.93;;;6.87;;
19780;SDS011;10050;55.492;13.506;2022-09-27T08:48:39;11.57;;;7.03;;
19780;SDS011;10050;55.492;13.506;2022-09-27T08:51:09;11.83;;;7.20;;
19780;SDS011;10050;55.492;13.506;2022-09-27T08:53:39;7.90;;;6.30;;
19780;SDS011;10050;55.492;13.506;2022-09-27T08:56:29;6.53;;;5.67;;
19780;SDS011;10050;55.492;13.506;2022-09-27T08:59:09;6.37;;;5.23;;
19780;SDS011;10050;55.492;13.506;2022-09-27T09:01:45;6.87;;;6.17;;
19780;SDS011;10050;55.492;13.506;2022-09-27T09:04:10;8.10;;;6.00;;
19780;SDS011;10050;55.492;13.506;2022-09-27T09:06:54;6.47;;;5.67;;
19780;SDS011;10050;55.492;13.506;2022-09-27T09:26:08;5.13;;;4.20;;
19780;SDS011;10050;55.492;13.506;2022-09-27T09:28:41;8.10;;;4.73;;
19780;SDS011;10050;55.492;13.506;2022-09-27T09:34:22;4.77;;;4.30;;
19780;SDS011;10050;55.492;13.506;2022-09-27T09:39:44;5.17;;;3.77;;
19780;SDS011;10050;55.492;13.506;2022-09-27T09:45:30;4.23;;;3.73;;
19780;SDS011;10050;55.492;13.506;2022-09-27T09:50:58;6.73;;;3.77;;
19780;SDS011;10050;55.492;13.506;2022-09-27T09:53:41;5.13;;;3.47;;
19780;SDS011;10050;55.492;13.506;2022-09-27T09:56:23;4.57;;;3.20;;
19780;SDS011;10050;55.492;13.506;2022-09-27T09:58:57;3.00;;;2.80;;
19780;SDS011;10050;55.492;13.506;2022-09-27T10:01:40;3.47;;;3.17;;
19780;SDS011;10050;55.492;13.506;2022-09-27T10:06:44;3.70;;;3.23;;
19780;SDS011;10050;55.492;13.506;2022-09-27T10:09:11;5.70;;;3.13;;
19780;SDS011;10050;55.492;13.506;2022-09-27T10:11:43;3.33;;;3.03;;
19780;SDS011;10050;55.492;13.506;2022-09-27T10:14:11;4.40;;;3.43;;
19780;SDS011;10050;55.492;13.506;2022-09-27T10:16:39;4.70;;;3.80;;
19780;SDS011;10050;55.492;13.506;2022-09-27T10:19:07;6.60;;;3.63;;
19780;SDS011;10050;55.492;13.506;2022-09-27T10:21:34;2.93;;;2.70;;
19780;SDS011;10050;55.492;13.506;2022-09-27T10:24:07;3.53;;;2.77;;
19780;SDS011;10050;55.492;13.506;2022-09-27T10:26:39;3.53;;;3.17;;
19780;SDS011;10050;55.492;13.506;2022-09-27T10:31:55;3.37;;;3.07;;
19780;SDS011;10050;55.492;13.506;2022-09-27T10:34:32;4.23;;;2.87;;
19780;SDS011;10050;55.492;13.506;2022-09-27T10:39:31;4.10;;;2.53;;
19780;SDS011;10050;55.492;13.506;2022-09-27T10:41:57;4.43;;;3.10;;
19780;SDS011;10050;55.492;13.506;2022-09-27T10:44:26;5.07;;;3.20;;
19780;SDS011;10050;55.492;13.506;2022-09-27T10:46:59;3.13;;;2.90;;
19780;SDS011;10050;55.492;13.506;2022-09-27T10:49:32;4.60;;;2.43;;
19780;SDS011;10050;55.492;13.506;2022-09-27T10:52:01;6.30;;;2.60;;
19780;SDS011;10050;55.492;13.506;2022-09-27T10:54:55;8.93;;;3.20;;
19780;SDS011;10050;55.492;13.506;2022-09-27T10:57:29;4.40;;;4.00;;
19780;SDS011;10050;55.492;13.506;2022-09-27T10:59:57;5.37;;;3.90;;
19780;SDS011;10050;55.492;13.506;2022-09-27T11:02:27;7.33;;;4.63;;
19780;SDS011;10050;55.492;13.506;2022-09-27T11:05:28;5.50;;;4.20;;
19780;SDS011;10050;55.492;13.506;2022-09-27T11:07:58;5.30;;;4.80;;
19780;SDS011;10050;55.492;13.506;2022-09-27T11:10:34;6.97;;;4.67;;
19780;SDS011;10050;55.492;13.506;2022-09-27T11:13:07;6.87;;;5.20;;
19780;SDS011;10050;55.492;13.506;2022-09-27T11:15:48;10.47;;;5.90;;
19780;SDS011;10050;55.492;13.506;2022-09-27T11:21:12;7.83;;;6.47;;
19780;SDS011;10050;55.492;13.506;2022-09-27T11:35:00;9.63;;;6.90;;
19780;SDS011;10050;55.492;13.506;2022-09-27T11:43:36;9.73;;;7.53;;
19780;SDS011;10050;55.492;13.506;2022-09-27T11:46:36;8.53;;;7.60;;
19780;SDS011;10050;55.492;13.506;2022-09-27T12:10:16;9.43;;;8.50;;
19780;SDS011;10050;55.492;13.506;2022-09-27T12:12:44;10.77;;;7.90;;
19780;SDS011;10050;55.492;13.506;2022-09-27T12:15:39;11.77;;;7.80;;
19780;SDS011;10050;55.492;13.506;2022-09-27T12:18:11;11.80;;;7.23;;
19780;SDS011;10050;55.492;13.506;2022-09-27T12:20:38;7.73;;;6.70;;
19780;SDS011;10050;55.492;13.506;2022-09-27T12:23:08;7.40;;;6.63;;
19780;SDS011;10050;55.492;13.506;2022-09-27T12:25:49;10.23;;;5.77;;
19780;SDS011;10050;55.492;13.506;2022-09-27T12:28:30;7.00;;;5.57;;
19780;SDS011;10050;55.492;13.506;2022-09-27T12:31:05;6.53;;;5.87;;
19780;SDS011;10050;55.492;13.506;2022-09-27T12:36:42;7.77;;;6.23;;
19780;SDS011;10050;55.492;13.506;2022-09-27T12:42:38;6.17;;;5.50;;
19780;SDS011;10050;55.492;13.506;2022-09-27T12:45:42;6.40;;;5.47;;
19780;SDS011;10050;55.492;13.506;2022-09-27T12:48:24;6.27;;;4.90;;
19780;SDS011;10050;55.492;13.506;2022-09-27T12:51:12;5.37;;;4.87;;
19780;SDS011;10050;55.492;13.506;2022-09-27T12:57:01;6.00;;;5.27;;
19780;SDS011;10050;55.492;13.506;2022-09-27T12:59:52;13.73;;;6.53;;
19780;SDS011;10050;55.492;13.506;2022-09-27T13:02:48;9.10;;;6.37;;
19780;SDS011;10050;55.492;13.506;2022-09-27T13:10:39;6.70;;;5.80;;
19780;SDS011;10050;55.492;13.506;2022-09-27T13:13:13;7.43;;;5.83;;
19780;SDS011;10050;55.492;13.506;2022-09-27T13:15:42;7.27;;;5.50;;
19780;SDS011;10050;55.492;13.506;2022-09-27T13:20:56;5.83;;;5.33;;
19780;SDS011;10050;55.492;13.506;2022-09-27T13:25:52;7.33;;;6.03;;
19780;SDS011;10050;55.492;13.506;2022-09-27T13:31:15;5.93;;;4.53;;
19780;SDS011;10050;55.492;13.506;2022-09-27T13:34:13;6.20;;;4.63;;
19780;SDS011;10050;55.492;13.506;2022-09-27T13:40:15;4.93;;;4.50;;
19780;SDS011;10050;55.492;13.506;2022-09-27T13:45:47;4.50;;;4.10;;
19780;SDS011;10050;55.492;13.506;2022-09-27T13:48:17;4.20;;;3.80;;
19780;SDS011;10050;55.492;13.506;2022-09-27T13:50:51;4.00;;;3.70;;
19780;SDS011;10050;55.492;13.506;2022-09-27T13:53:27;5.37;;;4.87;;
19780;SDS011;10050;55.492;13.506;2022-09-27T13:55:57;4.37;;;3.97;;
19780;SDS011;10050;55.492;13.506;2022-09-27T13:58:31;5.83;;;4.00;;
19780;SDS011;10050;55.492;13.506;2022-09-27T14:01:25;7.53;;;4.50;;
19780;SDS011;10050;55.492;13.506;2022-09-27T14:03:55;5.73;;;4.43;;
19780;SDS011;10050;55.492;13.506;2022-09-27T14:06:33;8.93;;;4.70;;
19780;SDS011;10050;55.492;13.506;2022-09-27T14:09:04;6.03;;;5.00;;
19780;SDS011;10050;55.492;13.506;2022-09-27T14:11:38;5.37;;;4.13;;
19780;SDS011;10050;55.492;13.506;2022-09-27T14:14:11;5.33;;;4.27;;
19780;SDS011;10050;55.492;13.506;2022-09-27T14:16:41;5.87;;;4.93;;
19780;SDS011;10050;55.492;13.506;2022-09-27T14:19:15;4.70;;;4.20;;
19780;SDS011;10050;55.492;13.506;2022-09-27T14:21:43;6.50;;;4.03;;
19780;SDS011;10050;55.492;13.506;2022-09-27T14:24:30;4.27;;;3.47;;
19780;SDS011;10050;55.492;13.506;2022-09-27T14:27:04;2.77;;;2.57;;
19780;SDS011;10050;55.492;13.506;2022-09-27T14:29:57;3.23;;;2.67;;
19780;SDS011;10050;55.492;13.506;2022-09-27T14:32:29;4.10;;;2.60;;
19780;SDS011;10050;55.492;13.506;2022-09-27T14:35:04;5.07;;;2.97;;
19780;SDS011;10050;55.492;13.506;2022-09-27T14:38:05;4.70;;;2.80;;
19780;SDS011;10050;55.492;13.506;2022-09-27T14:40:36;3.30;;;3.00;;
19780;SDS011;10050;55.492;13.506;2022-09-27T14:43:24;6.07;;;3.47;;
19780;SDS011;10050;55.492;13.506;2022-09-27T14:46:00;7.27;;;3.10;;
19780;SDS011;10050;55.492;13.506;2022-09-27T14:48:34;3.37;;;2.47;;
19780;SDS011;10050;55.492;13.506;2022-09-27T14:51:48;2.70;;;2.50;;
19780;SDS011;10050;55.492;13.506;2022-09-27T14:53:56;2.83;;;2.63;;
19780;SDS011;10050;55.492;13.506;2022-09-27T14:56:34;2.77;;;2.57;;
19780;SDS011;10050;55.492;13.506;2022-09-27T14:59:15;3.20;;;2.90;;
19780;SDS011;10050;55.492;13.506;2022-09-27T15:01:54;3.77;;;3.20;;
19780;SDS011;10050;55.492;13.506;2022-09-27T15:04:24;4.83;;;2.70;;
19780;SDS011;10050;55.492;13.506;2022-09-27T15:06:52;2.90;;;2.70;;
19780;SDS011;10050;55.492;13.506;2022-09-27T15:09:18;4.97;;;3.40;;
19780;SDS011;10050;55.492;13.506;2022-09-27T15:11:46;3.28;;;2.97;;
19780;SDS011;10050;55.492;13.506;2022-09-27T15:14:17;3.40;;;3.10;;
19780;SDS011;10050;55.492;13.506;2022-09-27T15:16:44;4.10;;;2.87;;
19780;SDS011;10050;55.492;13.506;2022-09-27T15:19:16;6.03;;;3.40;;
19780;SDS011;10050;55.492;13.506;2022-09-27T15:21:43;3.87;;;3.30;;
19780;SDS011;10050;55.492;13.506;2022-09-27T15:27:13;3.97;;;3.60;;
19780;SDS011;10050;55.492;13.506;2022-09-27T15:29:46;3.67;;;3.37;;
19780;SDS011;10050;55.492;13.506;2022-09-27T15:32:15;4.77;;;3.80;;
19780;SDS011;10050;55.492;13.506;2022-09-27T15:34:44;4.60;;;4.20;;
19780;SDS011;10050;55.492;13.506;2022-09-27T15:37:26;5.97;;;4.53;;
19780;SDS011;10050;55.492;13.506;2022-09-27T15:42:54;4.40;;;4.00;;
19780;SDS011;10050;55.492;13.506;2022-09-27T15:45:41;4.63;;;4.10;;
19780;SDS011;10050;55.492;13.506;2022-09-27T15:48:15;8.60;;;4.17;;
19780;SDS011;10050;55.492;13.506;2022-09-27T15:50:42;3.90;;;3.50;;
19780;SDS011;10050;55.492;13.506;2022-09-27T15:53:08;4.30;;;3.60;;
19780;SDS011;10050;55.492;13.506;2022-09-27T15:55:37;4.50;;;3.57;;
19780;SDS011;10050;55.492;13.506;2022-09-27T15:58:05;5.23;;;3.60;;
19780;SDS011;10050;55.492;13.506;2022-09-27T16:00:39;4.20;;;3.80;;
19780;SDS011;10050;55.492;13.506;2022-09-27T16:03:17;4.47;;;4.07;;
19780;SDS011;10050;55.492;13.506;2022-09-27T16:05:43;3.97;;;3.67;;
19780;SDS011;10050;55.492;13.506;2022-09-27T16:08:12;4.33;;;3.93;;
19780;SDS011;10050;55.492;13.506;2022-09-27T16:10:38;5.17;;;4.67;;
19780;SDS011;10050;55.492;13.506;2022-09-27T16:13:06;6.27;;;4.20;;
19780;SDS011;10050;55.492;13.506;2022-09-27T16:15:31;4.70;;;4.27;;
19780;SDS011;10050;55.492;13.506;2022-09-27T16:17:57;4.60;;;4.20;;
19780;SDS011;10050;55.492;13.506;2022-09-27T16:20:25;4.67;;;4.23;;
19780;SDS011;10050;55.492;13.506;2022-09-27T16:22:52;4.20;;;3.87;;
19780;SDS011;10050;55.492;13.506;2022-09-27T16:25:19;4.17;;;3.77;;
19780;SDS011;10050;55.492;13.506;2022-09-27T16:27:46;3.93;;;3.60;;
19780;SDS011;10050;55.492;13.506;2022-09-27T16:30:12;4.10;;;3.70;;
19780;SDS011;10050;55.492;13.506;2022-09-27T16:32:39;3.83;;;3.53;;
19780;SDS011;10050;55.492;13.506;2022-09-27T16:35:09;3.60;;;3.30;;
19780;SDS011;10050;55.492;13.506;2022-09-27T16:37:37;3.70;;;3.40;;
19780;SDS011;10050;55.492;13.506;2022-09-27T16:40:03;9.47;;;3.60;;
19780;SDS011;10050;55.492;13.506;2022-09-27T16:42:30;4.27;;;3.93;;
19780;SDS011;10050;55.492;13.506;2022-09-27T16:44:56;4.77;;;3.90;;
19780;SDS011;10050;55.492;13.506;2022-09-27T16:47:22;4.67;;;4.27;;
19780;SDS011;10050;55.492;13.506;2022-09-27T16:49:47;4.63;;;4.33;;
19780;SDS011;10050;55.492;13.506;2022-09-27T16:52:32;3.83;;;3.53;;
19780;SDS011;10050;55.492;13.506;2022-09-27T16:54:58;4.47;;;4.00;;
19780;SDS011;10050;55.492;13.506;2022-09-27T16:57:24;4.67;;;3.87;;
19780;SDS011;10050;55.492;13.506;2022-09-27T16:59:54;5.70;;;3.30;;
19780;SDS011;10050;55.492;13.506;2022-09-27T17:02:21;3.43;;;2.63;;
19780;SDS011;10050;55.492;13.506;2022-09-27T17:04:48;4.23;;;2.80;;
19780;SDS011;10050;55.492;13.506;2022-09-27T17:07:15;5.13;;;3.53;;
19780;SDS011;10050;55.492;13.506;2022-09-27T17:09:41;4.30;;;3.90;;
19780;SDS011;10050;55.492;13.506;2022-09-27T17:12:06;4.90;;;3.03;;
19780;SDS011;10050;55.492;13.506;2022-09-27T17:14:32;5.37;;;3.10;;
19780;SDS011;10050;55.492;13.506;2022-09-27T17:16:57;5.93;;;3.00;;
19780;SDS011;10050;55.492;13.506;2022-09-27T17:19:23;3.77;;;3.17;;
19780;SDS011;10050;55.492;13.506;2022-09-27T17:21:49;5.13;;;3.13;;
19780;SDS011;10050;55.492;13.506;2022-09-27T17:24:15;6.97;;;4.07;;
19780;SDS011;10050;55.492;13.506;2022-09-27T17:26:41;6.13;;;3.93;;
19780;SDS011;10050;55.492;13.506;2022-09-27T17:29:08;4.63;;;4.00;;
19780;SDS011;10050;55.492;13.506;2022-09-27T17:31:35;5.80;;;4.70;;
19780;SDS011;10050;55.492;13.506;2022-09-27T17:34:03;6.87;;;4.60;;
19780;SDS011;10050;55.492;13.506;2022-09-27T17:36:29;5.40;;;4.53;;
19780;SDS011;10050;55.492;13.506;2022-09-27T17:39:02;4.57;;;4.10;;
19780;SDS011;10050;55.492;13.506;2022-09-27T17:41:29;6.20;;;4.43;;
19780;SDS011;10050;55.492;13.506;2022-09-27T17:43:56;4.70;;;4.20;;
19780;SDS011;10050;55.492;13.506;2022-09-27T17:46:27;4.60;;;4.23;;
19780;SDS011;10050;55.492;13.506;2022-09-27T17:48:54;5.57;;;4.87;;